Time;durP1;ratioP1;P1;durP2;ratioP2;P2;SDS_P1;SDS_P2;PMS_P1;PMS_P2;Temp;Humidity;BMP_temperature;BMP_pressure;BME280_temperature;BME280_humidity;BME280_pressure;Samples;Min_cycle;Max_cycle;Signal;HPM_P1;HPM_P2
2020/12/22 00:02:11;;;;;;;2.22;1.65;;;1.50;99.90;;;;;;5109653;28;20175;-73
2020/12/22 00:04:36;;;;;;;0.47;0.47;;;1.50;99.90;;;;;;5110794;28;20232;-74
2020/12/22 00:07:03;;;;;;;0.45;0.45;;;1.50;99.90;;;;;;5110822;28;20151;-74
2020/12/22 00:09:29;;;;;;;0.30;0.30;;;1.60;99.90;;;;;;5110732;28;20194;-72
2020/12/22 00:11:55;;;;;;;3.92;1.52;;;1.60;99.90;;;;;;5110603;28;20612;-73
2020/12/22 00:14:20;;;;;;;0.95;0.95;;;1.60;99.90;;;;;;5110550;28;20167;-73
2020/12/22 00:16:46;;;;;;;0.55;0.55;;;1.70;99.90;;;;;;5109201;28;20191;-73
2020/12/22 00:19:12;;;;;;;0.28;0.28;;;1.70;99.90;;;;;;5109180;28;20216;-73
2020/12/22 00:21:38;;;;;;;0.20;0.20;;;1.70;99.90;;;;;;5110497;28;20185;-73
2020/12/22 00:24:05;;;;;;;1.33;1.33;;;1.70;99.90;;;;;;5109205;28;20178;-73
2020/12/22 00:26:30;;;;;;;1.27;1.27;;;1.70;99.90;;;;;;5110389;28;20152;-73
2020/12/22 00:28:56;;;;;;;2.25;2.15;;;1.70;99.90;;;;;;5110329;28;20206;-73
2020/12/22 00:31:22;;;;;;;0.80;0.80;;;1.70;99.90;;;;;;5108877;28;20173;-73
2020/12/22 00:33:48;;;;;;;2.35;2.22;;;1.80;99.90;;;;;;5110306;28;20166;-72
2020/12/22 00:36:14;;;;;;;1.55;1.45;;;1.80;99.90;;;;;;5110141;28;20198;-73
2020/12/22 00:38:42;;;;;;;0.75;0.75;;;1.70;99.90;;;;;;5110189;28;20187;-72
2020/12/22 00:41:12;;;;;;;0.38;0.38;;;1.70;99.90;;;;;;5110106;28;20155;-72
2020/12/22 00:43:40;;;;;;;2.22;1.80;;;1.70;99.90;;;;;;5109984;28;20222;-72
2020/12/22 00:46:06;;;;;;;0.75;0.75;;;1.70;99.90;;;;;;5110073;28;20223;-72
2020/12/22 00:48:32;;;;;;;0.20;0.20;;;1.70;99.90;;;;;;5108664;28;20202;-73
2020/12/22 00:50:58;;;;;;;0.68;0.68;;;1.70;99.90;;;;;;5109951;28;20163;-72
2020/12/22 00:53:24;;;;;;;0.20;0.20;;;1.70;99.90;;;;;;5108630;28;20197;-73
2020/12/22 00:55:49;;;;;;;2.55;2.45;;;1.70;99.90;;;;;;5109788;28;20198;-73
2020/12/22 00:58:15;;;;;;;0.43;0.43;;;1.80;99.90;;;;;;5109768;28;20191;-73
2020/12/22 01:00:41;;;;;;;0.25;0.25;;;1.80;99.90;;;;;;5109845;28;20182;-73
2020/12/22 01:03:07;;;;;;;0.20;0.20;;;1.80;99.90;;;;;;5108172;28;20182;-73
2020/12/22 01:05:33;;;;;;;0.68;0.68;;;1.80;99.90;;;;;;5108510;28;20258;-73
2020/12/22 01:07:59;;;;;;;0.85;0.85;;;1.80;99.90;;;;;;5109647;28;20254;-73
2020/12/22 01:10:25;;;;;;;2.38;2.05;;;1.80;99.90;;;;;;5109683;28;20193;-73
2020/12/22 01:12:53;;;;;;;1.08;1.08;;;1.80;99.90;;;;;;5108366;28;20179;-72
2020/12/22 01:15:20;;;;;;;0.52;0.52;;;1.80;99.90;;;;;;5109586;28;20250;-72
2020/12/22 01:17:47;;;;;;;0.75;0.75;;;1.80;99.90;;;;;;5108239;28;20171;-72
2020/12/22 01:20:13;;;;;;;0.63;0.63;;;1.80;99.90;;;;;;5109549;28;20185;-72
2020/12/22 01:22:38;;;;;;;0.10;0.10;;;1.80;99.90;;;;;;5109558;28;20604;-73
2020/12/22 01:25:04;;;;;;;0.65;0.65;;;1.80;99.90;;;;;;5109522;28;20158;-72
2020/12/22 01:27:30;;;;;;;0.75;0.75;;;1.80;99.90;;;;;;5109399;28;20210;-73
2020/12/22 01:29:56;;;;;;;0.47;0.47;;;1.70;99.90;;;;;;5109386;28;20236;-72
2020/12/22 01:32:22;;;;;;;0.40;0.40;;;1.80;99.90;;;;;;5109493;28;20195;-73
2020/12/22 01:34:48;;;;;;;0.47;0.47;;;1.70;99.90;;;;;;5108013;28;20175;-73
2020/12/22 01:37:14;;;;;;;0.40;0.40;;;1.70;99.90;;;;;;5099761;28;20349;-72
2020/12/22 01:39:40;;;;;;;1.85;0.65;;;1.80;99.90;;;;;;5089198;28;20172;-73
2020/12/22 01:42:10;;;;;;;1.65;1.25;;;1.80;99.90;;;;;;5088940;28;20215;-72
2020/12/22 01:44:36;;;;;;;1.50;1.17;;;1.70;99.90;;;;;;5089058;28;20164;-73
2020/12/22 01:47:03;;;;;;;0.68;0.68;;;1.70;99.90;;;;;;5087711;28;20230;-72
2020/12/22 01:49:29;;;;;;;0.52;0.52;;;1.70;99.90;;;;;;5087770;28;20175;-73
2020/12/22 01:51:57;;;;;;;1.25;1.15;;;1.70;99.90;;;;;;5089000;28;20200;-73
2020/12/22 01:54:25;;;;;;;0.30;0.30;;;1.70;99.90;;;;;;5088897;28;20235;-73
2020/12/22 01:56:52;;;;;;;2.95;2.75;;;1.70;99.90;;;;;;5088782;28;20612;-73
2020/12/22 01:59:18;;;;;;;0.80;0.80;;;1.70;99.90;;;;;;5088961;28;20178;-72
2020/12/22 02:01:45;;;;;;;2.15;1.10;;;1.80;99.90;;;;;;5088743;28;20196;-72
2020/12/22 02:04:11;;;;;;;0.75;0.75;;;1.80;99.90;;;;;;5088794;28;20199;-72
2020/12/22 02:06:38;;;;;;;1.90;1.83;;;1.70;99.90;;;;;;5087540;28;20191;-73
2020/12/22 02:09:09;;;;;;;0.30;0.30;;;1.70;99.90;;;;;;5088833;28;20194;-73
2020/12/22 02:11:37;;;;;;;0.25;0.25;;;1.70;99.90;;;;;;5087672;28;20203;-72
2020/12/22 02:14:05;;;;;;;3.13;2.92;;;1.70;99.90;;;;;;5108945;28;20171;-72
2020/12/22 02:16:31;;;;;;;0.82;0.82;;;1.70;99.90;;;;;;5112893;28;20190;-72
2020/12/22 02:18:57;;;;;;;1.55;1.52;;;1.70;99.90;;;;;;5111694;28;20193;-72
2020/12/22 02:21:24;;;;;;;0.30;0.30;;;1.60;99.90;;;;;;5112776;28;20186;-72
2020/12/22 02:23:54;;;;;;;2.22;2.05;;;1.60;99.90;;;;;;5112812;28;20176;-72
2020/12/22 02:26:23;;;;;;;2.10;0.98;;;1.60;99.90;;;;;;5112773;28;20164;-73
2020/12/22 02:28:55;;;;;;;0.43;0.43;;;1.60;99.90;;;;;;5112749;28;20163;-72
2020/12/22 02:31:24;;;;;;;2.75;2.65;;;1.60;99.90;;;;;;5111271;28;20181;-72
2020/12/22 02:33:51;;;;;;;0.57;0.57;;;1.60;99.90;;;;;;5112657;28;20156;-72
2020/12/22 02:36:16;;;;;;;0.82;0.82;;;1.60;99.90;;;;;;5112488;28;20244;-72
2020/12/22 02:38:43;;;;;;;0.20;0.20;;;1.60;99.90;;;;;;5112460;28;20215;-72
2020/12/22 02:41:10;;;;;;;0.82;0.82;;;1.60;99.90;;;;;;5112461;28;20163;-73
2020/12/22 02:43:37;;;;;;;0.60;0.60;;;1.60;99.90;;;;;;5112187;28;20229;-73
2020/12/22 02:46:03;;;;;;;2.45;2.25;;;1.60;99.90;;;;;;5112432;28;20171;-72
2020/12/22 02:48:29;;;;;;;2.22;2.03;;;1.60;99.90;;;;;;5112436;28;20161;-72
2020/12/22 02:50:55;;;;;;;2.80;1.25;;;1.60;99.90;;;;;;5112299;28;20168;-72
2020/12/22 02:53:21;;;;;;;1.15;1.15;;;1.60;99.90;;;;;;5110920;28;20194;-72
2020/12/22 02:55:47;;;;;;;0.82;0.82;;;1.60;99.90;;;;;;5112090;28;20190;-72
2020/12/22 02:58:13;;;;;;;0.40;0.40;;;1.60;99.90;;;;;;5112215;28;20163;-72
2020/12/22 03:00:41;;;;;;;1.48;1.38;;;1.60;99.90;;;;;;5112123;28;20162;-72
2020/12/22 03:03:06;;;;;;;1.33;1.02;;;1.60;99.90;;;;;;5111982;28;20633;-72
2020/12/22 03:05:32;;;;;;;0.65;0.65;;;1.60;99.90;;;;;;5111997;28;20167;-72
2020/12/22 03:07:58;;;;;;;0.93;0.93;;;1.70;99.90;;;;;;5111766;28;20167;-72
2020/12/22 03:10:24;;;;;;;0.28;0.28;;;1.70;99.90;;;;;;5111821;28;20191;-72
2020/12/22 03:12:50;;;;;;;1.35;1.35;;;1.70;99.90;;;;;;5092372;28;20200;-72
2020/12/22 03:15:17;;;;;;;0.45;0.45;;;1.60;99.90;;;;;;5090056;28;20218;-72
2020/12/22 03:17:42;;;;;;;0.73;0.73;;;1.60;99.90;;;;;;5090362;28;20172;-72
2020/12/22 03:20:12;;;;;;;2.28;2.17;;;1.60;99.90;;;;;;5091465;28;20164;-72
2020/12/22 03:22:39;;;;;;;0.93;0.85;;;1.60;99.90;;;;;;5091334;28;20202;-72
2020/12/22 03:25:06;;;;;;;0.90;0.90;;;1.60;99.90;;;;;;5091105;28;20160;-72
2020/12/22 03:27:32;;;;;;;0.43;0.43;;;1.70;99.90;;;;;;5090052;28;20211;-72
2020/12/22 03:29:59;;;;;;;0.85;0.85;;;1.70;99.90;;;;;;5091281;28;20178;-72
2020/12/22 03:32:25;;;;;;;0.30;0.30;;;1.70;99.90;;;;;;5089831;28;20203;-72
2020/12/22 03:34:51;;;;;;;1.08;1.08;;;1.70;99.90;;;;;;5089342;28;20171;-72
2020/12/22 03:37:20;;;;;;;0.40;0.40;;;1.70;99.90;;;;;;5091046;28;20159;-72
2020/12/22 03:39:50;;;;;;;1.48;1.38;;;1.60;99.90;;;;;;5090902;28;20160;-72
2020/12/22 03:42:17;;;;;;;1.83;1.42;;;1.70;99.90;;;;;;5090233;28;20237;-72
2020/12/22 03:44:44;;;;;;;0.52;0.52;;;1.70;99.90;;;;;;5090709;28;20176;-72
2020/12/22 03:47:11;;;;;;;0.85;0.85;;;1.60;99.90;;;;;;5090749;28;20538;-72
2020/12/22 03:49:37;;;;;;;2.53;2.42;;;1.60;99.90;;;;;;5089444;28;20175;-72
2020/12/22 03:52:04;;;;;;;4.65;4.07;;;1.60;99.90;;;;;;5090737;28;20215;-73
2020/12/22 03:54:31;;;;;;;1.17;0.70;;;1.70;99.90;;;;;;5090540;28;20224;-73
2020/12/22 03:56:57;;;;;;;0.60;0.60;;;1.70;99.90;;;;;;5090450;28;20199;-73
2020/12/22 03:59:23;;;;;;;0.73;0.73;;;1.70;99.90;;;;;;5089051;28;20168;-72
2020/12/22 04:01:50;;;;;;;0.50;0.50;;;1.70;99.90;;;;;;5090248;28;20191;-71
2020/12/22 04:04:21;;;;;;;1.10;1.02;;;1.70;99.90;;;;;;5089264;28;20164;-71
2020/12/22 04:06:48;;;;;;;1.63;1.45;;;1.60;99.90;;;;;;5090159;28;20227;-72
2020/12/22 04:09:18;;;;;;;0.63;0.63;;;1.70;99.90;;;;;;5090377;28;20179;-71
2020/12/22 04:11:45;;;;;;;2.17;2.08;;;1.70;99.90;;;;;;5090229;28;20153;-71
2020/12/22 04:14:11;;;;;;;0.60;0.60;;;1.70;99.90;;;;;;5099618;28;20268;-72
2020/12/22 04:16:38;;;;;;;0.82;0.82;;;1.70;99.90;;;;;;5108324;28;20728;-71
2020/12/22 04:19:05;;;;;;;3.03;2.88;;;1.70;99.90;;;;;;5110427;28;20183;-72
2020/12/22 04:21:31;;;;;;;0.90;0.90;;;1.70;99.90;;;;;;5109142;28;20189;-72
2020/12/22 04:23:57;;;;;;;0.20;0.20;;;1.70;99.90;;;;;;5109113;28;20170;-72
2020/12/22 04:26:24;;;;;;;1.23;1.23;;;1.70;99.90;;;;;;5110349;28;20551;-71
2020/12/22 04:28:50;;;;;;;1.25;1.25;;;1.70;99.90;;;;;;5110351;28;20152;-72
2020/12/22 04:31:16;;;;;;;0.93;0.93;;;1.60;99.90;;;;;;5110261;28;20191;-71
2020/12/22 04:33:42;;;;;;;1.35;1.30;;;1.70;99.90;;;;;;5110252;28;20234;-72
2020/12/22 04:36:08;;;;;;;0.77;0.77;;;1.60;99.90;;;;;;5110143;28;20206;-71
2020/12/22 04:38:34;;;;;;;0.80;0.80;;;1.70;99.90;;;;;;5109349;28;20178;-71
2020/12/22 04:41:05;;;;;;;1.30;1.30;;;1.60;99.90;;;;;;5110020;28;20159;-72
2020/12/22 04:43:32;;;;;;;0.52;0.52;;;1.60;99.90;;;;;;5109931;28;20234;-72
2020/12/22 04:46:04;;;;;;;2.72;2.63;;;1.70;99.90;;;;;;5109876;28;20242;-72
2020/12/22 04:48:35;;;;;;;0.20;0.20;;;1.70;99.90;;;;;;5109871;28;20187;-72
2020/12/22 04:51:02;;;;;;;9.15;1.70;;;1.70;99.90;;;;;;5109824;28;20166;-72
2020/12/22 04:53:31;;;;;;;2.38;2.17;;;1.70;99.90;;;;;;5109788;28;20166;-72
2020/12/22 04:55:57;;;;;;;0.40;0.40;;;1.70;99.90;;;;;;5109356;28;20246;-72
2020/12/22 04:58:26;;;;;;;1.08;1.08;;;1.70;99.90;;;;;;5109296;28;20193;-72
2020/12/22 05:00:53;;;;;;;1.65;1.55;;;1.70;99.90;;;;;;5108403;28;20170;-72
2020/12/22 05:03:22;;;;;;;0.90;0.70;;;1.70;99.90;;;;;;5109602;28;20158;-72
2020/12/22 05:05:48;;;;;;;2.30;2.20;;;1.70;99.90;;;;;;5109748;28;20218;-72
2020/12/22 05:08:14;;;;;;;0.40;0.40;;;1.70;99.90;;;;;;5108365;28;20240;-72
2020/12/22 05:10:44;;;;;;;1.70;1.60;;;1.60;99.90;;;;;;5108253;28;20164;-72
2020/12/22 05:13:11;;;;;;;1.55;1.50;;;1.70;99.90;;;;;;5108161;28;20195;-71
2020/12/22 05:15:42;;;;;;;2.08;1.98;;;1.70;99.90;;;;;;5109248;28;20184;-72
2020/12/22 05:18:08;;;;;;;1.58;1.48;;;1.60;99.90;;;;;;5109228;28;20194;-72
2020/12/22 05:20:34;;;;;;;2.28;1.05;;;1.70;99.90;;;;;;5109039;28;20155;-72
2020/12/22 05:23:00;;;;;;;0.98;0.98;;;1.60;99.90;;;;;;5107869;28;20182;-72
2020/12/22 05:25:28;;;;;;;1.23;1.23;;;1.60;99.90;;;;;;5107596;28;20580;-72
2020/12/22 05:27:56;;;;;;;1.52;1.42;;;1.60;99.90;;;;;;5108983;28;20210;-72
2020/12/22 05:30:22;;;;;;;0.60;0.60;;;1.50;99.90;;;;;;5108673;28;20588;-72
2020/12/22 05:32:52;;;;;;;0.77;0.77;;;1.60;99.90;;;;;;5109218;28;20187;-73
2020/12/22 05:35:19;;;;;;;3.05;2.63;;;1.70;99.90;;;;;;5107840;28;20199;-73
2020/12/22 05:37:50;;;;;;;1.67;1.60;;;1.60;99.90;;;;;;5109000;28;20187;-73
2020/12/22 05:40:17;;;;;;;1.73;1.63;;;1.60;99.90;;;;;;5107738;28;20159;-73
2020/12/22 05:42:46;;;;;;;1.23;1.23;;;1.70;99.90;;;;;;5107404;28;20280;-73
2020/12/22 05:45:11;;;;;;;0.28;0.28;;;1.60;99.90;;;;;;5109023;28;20213;-74
2020/12/22 05:47:38;;;;;;;3.45;3.20;;;1.60;99.90;;;;;;5105517;28;20195;-74
2020/12/22 05:50:05;;;;;;;0.20;0.20;;;1.60;99.90;;;;;;5112221;28;20167;-73
2020/12/22 05:52:31;;;;;;;1.10;1.10;;;1.60;99.90;;;;;;5111661;28;20256;-74
2020/12/22 05:54:59;;;;;;;2.00;1.90;;;1.70;99.90;;;;;;5113064;28;20159;-74
2020/12/22 05:57:30;;;;;;;1.20;1.20;;;1.70;99.90;;;;;;5107921;28;20262;-73
2020/12/22 05:59:57;;;;;;;1.05;1.05;;;1.70;99.90;;;;;;5112934;28;20163;-74
2020/12/22 06:02:32;;;;;;;0.63;0.63;;;1.70;99.90;;;;;;5112926;28;20151;-73
2020/12/22 06:05:03;;;;;;;0.80;0.80;;;1.70;99.90;;;;;;5112722;28;20165;-74
2020/12/22 06:07:29;;;;;;;1.05;1.05;;;1.70;99.90;;;;;;5112864;28;20194;-73
2020/12/22 06:09:56;;;;;;;2.03;1.92;;;1.80;99.90;;;;;;5112656;28;20215;-73
2020/12/22 06:12:24;;;;;;;1.55;1.52;;;1.80;99.90;;;;;;5111683;28;20171;-73
2020/12/22 06:14:54;;;;;;;0.38;0.38;;;1.80;99.90;;;;;;5112946;28;20151;-73
2020/12/22 06:17:21;;;;;;;2.13;0.77;;;1.80;99.90;;;;;;5112404;28;20194;-73
2020/12/22 06:19:48;;;;;;;0.20;0.20;;;1.80;99.90;;;;;;5111553;28;20160;-74
2020/12/22 06:22:16;;;;;;;1.65;1.65;;;1.90;99.90;;;;;;5112743;28;20218;-74
2020/12/22 06:24:43;;;;;;;1.67;0.82;;;1.90;99.90;;;;;;5111161;28;20156;-74
2020/12/22 06:27:11;;;;;;;1.85;1.75;;;1.90;99.90;;;;;;5112298;28;20195;-73
2020/12/22 06:29:44;;;;;;;0.45;0.45;;;1.90;99.90;;;;;;5112583;28;20159;-73
2020/12/22 06:32:26;;;;;;;2.90;2.58;;;1.90;99.90;;;;;;5111667;28;20248;-74
2020/12/22 06:35:03;;;;;;;0.63;0.63;;;1.90;99.90;;;;;;5111059;28;20167;-74
2020/12/22 06:37:43;;;;;;;2.45;2.35;;;1.90;99.90;;;;;;5112212;28;20147;-74
2020/12/22 06:40:10;;;;;;;0.20;0.20;;;1.90;99.90;;;;;;5112173;28;20155;-74
2020/12/22 06:42:46;;;;;;;0.47;0.47;;;1.90;99.90;;;;;;5111180;28;20244;-74
2020/12/22 06:45:36;;;;;;;0.63;0.63;;;1.90;99.90;;;;;;5110787;28;20175;-74
2020/12/22 06:48:02;;;;;;;1.08;1.08;;;1.90;99.90;;;;;;5110882;28;20178;-74
2020/12/22 06:50:44;;;;;;;0.98;0.98;;;1.90;99.90;;;;;;5112058;28;20159;-74
2020/12/22 06:53:34;;;;;;;0.73;0.73;;;1.90;99.90;;;;;;5108798;28;20219;-73
2020/12/22 06:56:00;;;;;;;1.17;1.17;;;1.90;99.90;;;;;;5110597;28;20258;-73
2020/12/22 06:58:39;;;;;;;0.90;0.90;;;2.00;99.90;;;;;;5110738;28;20171;-73
2020/12/22 07:01:27;;;;;;;0.40;0.40;;;2.00;99.90;;;;;;5109361;28;20163;-74
2020/12/22 07:03:54;;;;;;;1.17;1.17;;;2.00;99.90;;;;;;5110323;28;20178;-74
2020/12/22 07:06:50;;;;;;;0.20;0.20;;;2.00;99.90;;;;;;5111720;28;20166;-74
2020/12/22 07:09:22;;;;;;;2.30;1.23;;;1.90;99.90;;;;;;5109158;28;20187;-73
2020/12/22 07:11:50;;;;;;;0.22;0.22;;;1.90;99.90;;;;;;5109243;28;20238;-73
2020/12/22 07:14:17;;;;;;;0.57;0.57;;;1.90;99.90;;;;;;5109372;28;20668;-73
2020/12/22 07:16:53;;;;;;;0.77;0.77;;;2.00;99.90;;;;;;5108766;28;20262;-72
2020/12/22 07:19:30;;;;;;;0.75;0.75;;;2.00;99.90;;;;;;5105202;28;20182;-72
2020/12/22 07:21:57;;;;;;;0.95;0.95;;;2.00;99.90;;;;;;5109315;28;20222;-72
2020/12/22 07:24:26;;;;;;;0.73;0.73;;;2.10;99.90;;;;;;5104417;28;20271;-72
2020/12/22 07:26:53;;;;;;;0.30;0.30;;;2.00;99.90;;;;;;5109175;28;20215;-73
2020/12/22 07:29:19;;;;;;;0.73;0.73;;;2.10;99.90;;;;;;5092186;28;20198;-73
2020/12/22 07:31:46;;;;;;;4.32;2.15;;;2.00;99.90;;;;;;5109059;28;20160;-73
2020/12/22 07:34:14;;;;;;;3.65;1.83;;;2.10;99.90;;;;;;5108959;28;20260;-73
2020/12/22 07:36:40;;;;;;;1.00;0.73;;;2.20;99.90;;;;;;5091901;28;20285;-73
2020/12/22 07:39:23;;;;;;;1.05;1.05;;;2.20;99.90;;;;;;5108880;28;20180;-72
2020/12/22 07:41:53;;;;;;;1.20;1.10;;;2.30;99.90;;;;;;5104814;28;20212;-72
2020/12/22 07:44:20;;;;;;;1.60;1.55;;;2.20;99.90;;;;;;5088420;28;20191;-72
2020/12/22 07:46:48;;;;;;;1.50;1.45;;;2.20;99.90;;;;;;5070685;28;20204;-72
2020/12/22 07:49:16;;;;;;;0.80;0.80;;;2.30;99.90;;;;;;5069427;28;20184;-72
2020/12/22 07:51:44;;;;;;;0.85;0.82;;;2.20;99.90;;;;;;5070611;28;20184;-73
2020/12/22 07:54:11;;;;;;;1.52;1.13;;;2.30;99.90;;;;;;5054597;28;20205;-73
2020/12/22 07:56:42;;;;;;;2.72;2.53;;;2.30;99.90;;;;;;5049213;28;20208;-72
2020/12/22 07:59:16;;;;;;;0.43;0.43;;;2.30;99.90;;;;;;5064441;28;20196;-73
2020/12/22 08:01:47;;;;;;;0.82;0.82;;;2.40;99.90;;;;;;5068836;28;20156;-71
2020/12/22 08:04:19;;;;;;;1.88;1.83;;;2.30;99.90;;;;;;5050482;28;20162;-71
2020/12/22 08:07:06;;;;;;;2.33;2.17;;;2.40;99.90;;;;;;5050464;28;20157;-72
2020/12/22 08:09:39;;;;;;;0.57;0.57;;;2.40;99.90;;;;;;5050352;28;20685;-72
2020/12/22 08:12:10;;;;;;;3.53;2.05;;;2.40;99.90;;;;;;5049369;28;20158;-71
2020/12/22 08:14:41;;;;;;;0.82;0.82;;;2.40;99.90;;;;;;5048576;28;20816;-72
2020/12/22 08:17:16;;;;;;;1.90;1.80;;;2.50;99.90;;;;;;5050212;28;20251;-71
2020/12/22 08:19:43;;;;;;;1.05;1.05;;;2.60;99.90;;;;;;5068388;28;20192;-72
2020/12/22 08:22:13;;;;;;;0.25;0.25;;;2.60;99.90;;;;;;5068852;28;20161;-72
2020/12/22 08:24:39;;;;;;;0.50;0.50;;;2.60;99.90;;;;;;5063162;28;20196;-73
2020/12/22 08:27:07;;;;;;;3.65;3.33;;;2.60;99.90;;;;;;5065347;28;20169;-72
2020/12/22 08:29:37;;;;;;;0.30;0.30;;;2.70;99.90;;;;;;5048648;28;20197;-72
2020/12/22 08:32:03;;;;;;;3.60;3.17;;;2.70;99.90;;;;;;5049978;28;20149;-72
2020/12/22 08:34:30;;;;;;;3.28;1.70;;;2.60;99.90;;;;;;5049484;28;20166;-72
2020/12/22 08:36:56;;;;;;;0.47;0.47;;;2.70;99.90;;;;;;5049693;28;20207;-73
2020/12/22 08:39:27;;;;;;;1.65;0.98;;;2.70;99.90;;;;;;5049596;28;20193;-73
2020/12/22 08:41:57;;;;;;;0.60;0.60;;;2.80;99.90;;;;;;5057995;28;20227;-73
2020/12/22 08:44:27;;;;;;;0.52;0.52;;;2.80;99.90;;;;;;5089814;28;20171;-73
2020/12/22 08:46:55;;;;;;;1.15;1.15;;;2.80;99.90;;;;;;5089375;28;20149;-72
2020/12/22 08:49:26;;;;;;;1.17;1.17;;;2.80;99.90;;;;;;5089468;28;20184;-73
2020/12/22 08:51:56;;;;;;;0.20;0.20;;;2.90;99.90;;;;;;5089504;28;20152;-72
2020/12/22 08:54:26;;;;;;;0.55;0.55;;;3.00;99.90;;;;;;5089499;28;20148;-72
2020/12/22 08:56:52;;;;;;;0.65;0.65;;;3.00;99.90;;;;;;5089265;28;20191;-73
2020/12/22 08:59:28;;;;;;;1.23;1.17;;;3.10;99.90;;;;;;5089392;28;20192;-73
2020/12/22 09:01:53;;;;;;;1.17;1.17;;;3.10;99.90;;;;;;5089239;28;20608;-72
2020/12/22 09:04:29;;;;;;;2.28;2.17;;;3.10;99.90;;;;;;5089473;28;20160;-72
2020/12/22 09:06:55;;;;;;;1.55;1.45;;;3.00;99.90;;;;;;5089213;28;20191;-73
2020/12/22 09:09:32;;;;;;;1.27;1.27;;;3.10;99.90;;;;;;5089244;28;20195;-73
2020/12/22 09:12:10;;;;;;;0.52;0.52;;;3.10;99.90;;;;;;5089373;28;20160;-73
2020/12/22 09:14:43;;;;;;;15.18;3.22;;;3.20;99.90;;;;;;5087883;28;20183;-72
2020/12/22 09:17:11;;;;;;;0.30;0.30;;;3.20;99.90;;;;;;5089173;28;20187;-72
2020/12/22 09:19:48;;;;;;;0.77;0.77;;;3.10;99.90;;;;;;5089118;28;20574;-72
2020/12/22 09:22:16;;;;;;;0.60;0.60;;;3.20;99.90;;;;;;5088711;28;20183;-73
2020/12/22 09:24:42;;;;;;;1.70;1.60;;;3.20;99.90;;;;;;5088824;28;20224;-72
2020/12/22 09:27:10;;;;;;;1.90;1.80;;;3.20;99.90;;;;;;5089045;28;20164;-72
2020/12/22 09:29:38;;;;;;;1.30;1.30;;;3.20;99.90;;;;;;5089056;28;20199;-72
2020/12/22 09:32:07;;;;;;;1.70;1.60;;;3.30;99.90;;;;;;5088971;28;20228;-72
2020/12/22 09:34:35;;;;;;;0.98;0.98;;;3.30;99.90;;;;;;5089171;28;20164;-73
2020/12/22 09:37:04;;;;;;;1.25;1.25;;;3.30;99.90;;;;;;5087498;28;20191;-72
2020/12/22 09:39:31;;;;;;;0.98;0.98;;;3.30;99.90;;;;;;5088915;28;20214;-72
2020/12/22 09:41:58;;;;;;;0.35;0.35;;;3.30;99.90;;;;;;5088844;28;20223;-72
2020/12/22 09:44:24;;;;;;;0.63;0.63;;;3.30;99.90;;;;;;5088894;28;20180;-72
2020/12/22 09:46:53;;;;;;;1.42;1.42;;;3.40;99.90;;;;;;5088889;28;20182;-72
2020/12/22 09:49:20;;;;;;;1.35;1.35;;;3.40;99.90;;;;;;5087451;28;20199;-72
2020/12/22 09:51:46;;;;;;;2.10;1.95;;;3.40;99.90;;;;;;5087374;28;20176;-72
2020/12/22 09:54:12;;;;;;;1.48;1.38;;;3.60;99.90;;;;;;5088527;28;20164;-73
2020/12/22 09:56:39;;;;;;;1.20;1.20;;;3.70;99.90;;;;;;5087464;28;20309;-72
2020/12/22 09:59:05;;;;;;;4.47;4.07;;;3.80;99.90;;;;;;5088837;28;20241;-71
2020/12/22 10:01:31;;;;;;;0.40;0.40;;;3.90;99.90;;;;;;5088418;28;20153;-73
2020/12/22 10:03:57;;;;;;;1.55;1.45;;;3.90;99.90;;;;;;5087319;28;20168;-72
2020/12/22 10:06:25;;;;;;;3.33;2.60;;;4.00;99.90;;;;;;5088765;28;20192;-72
2020/12/22 10:08:52;;;;;;;1.38;1.30;;;4.00;99.90;;;;;;5088774;28;20195;-73
2020/12/22 10:11:19;;;;;;;1.33;1.33;;;4.20;99.90;;;;;;5088621;28;20177;-73
2020/12/22 10:13:46;;;;;;;5.57;3.47;;;4.20;99.90;;;;;;5087498;28;20168;-72
2020/12/22 10:16:14;;;;;;;0.73;0.73;;;4.10;99.90;;;;;;5088380;28;20188;-71
2020/12/22 10:18:40;;;;;;;0.30;0.30;;;4.20;99.90;;;;;;5088404;28;20241;-73
2020/12/22 10:21:09;;;;;;;0.98;0.98;;;4.30;99.90;;;;;;5088452;28;20168;-73
2020/12/22 10:23:37;;;;;;;1.30;1.27;;;4.40;99.90;;;;;;5088137;28;20227;-72
2020/12/22 10:26:04;;;;;;;1.85;1.75;;;4.50;99.90;;;;;;5087205;28;20192;-73
2020/12/22 10:28:32;;;;;;;1.15;1.15;;;4.80;99.90;;;;;;5088448;28;20192;-72
2020/12/22 10:30:58;;;;;;;0.32;0.32;;;5.00;99.90;;;;;;5088457;28;20167;-73
2020/12/22 10:33:25;;;;;;;1.85;1.77;;;5.10;99.90;;;;;;5087132;28;20259;-73
2020/12/22 10:35:51;;;;;;;0.50;0.50;;;5.50;99.90;;;;;;5089501;28;20188;-73
2020/12/22 10:38:17;;;;;;;2.83;2.67;;;6.10;99.90;;;;;;5090584;28;20219;-72
2020/12/22 10:40:43;;;;;;;1.25;1.15;;;6.50;99.90;;;;;;5090748;28;20172;-73
2020/12/22 10:43:10;;;;;;;0.75;0.75;;;7.20;99.90;;;;;;5091520;28;20282;-72
2020/12/22 10:45:37;;;;;;;1.35;1.00;;;7.30;99.90;;;;;;5092042;28;20152;-72
2020/12/22 10:48:03;;;;;;;2.80;2.60;;;7.20;99.90;;;;;;5091811;28;20192;-73
2020/12/22 10:50:29;;;;;;;3.30;3.00;;;7.00;99.90;;;;;;5090611;28;20174;-72
2020/12/22 10:52:55;;;;;;;1.20;1.10;;;6.40;99.90;;;;;;5090443;28;20172;-71
2020/12/22 10:55:23;;;;;;;1.38;1.27;;;6.00;99.90;;;;;;5090280;28;20233;-72
2020/12/22 10:57:50;;;;;;;6.00;3.05;;;5.90;99.90;;;;;;5090300;28;20227;-72
2020/12/22 11:00:16;;;;;;;1.30;1.30;;;5.50;99.90;;;;;;5091543;28;20180;-73
2020/12/22 11:02:44;;;;;;;1.65;1.60;;;5.60;99.90;;;;;;5091641;28;20226;-73
2020/12/22 11:05:10;;;;;;;0.38;0.38;;;5.70;99.90;;;;;;5091516;28;20255;-72
2020/12/22 11:10:01;;;;;;;0.63;0.63;;;5.70;99.90;;;;;;5091520;28;20157;-73
2020/12/22 11:12:27;;;;;;;1.48;1.38;;;5.90;99.90;;;;;;5089566;28;20167;-73
2020/12/22 11:14:53;;;;;;;1.45;1.35;;;5.90;99.90;;;;;;5091312;28;20161;-73
2020/12/22 11:17:19;;;;;;;4.95;2.70;;;6.20;99.90;;;;;;5091295;28;20192;-73
2020/12/22 11:19:45;;;;;;;1.15;1.08;;;6.70;99.90;;;;;;5091131;28;20223;-73
2020/12/22 11:22:11;;;;;;;2.53;2.42;;;6.80;99.90;;;;;;5091259;28;20156;-73
2020/12/22 11:24:37;;;;;;;3.33;1.30;;;6.80;99.90;;;;;;5090884;28;20180;-73
2020/12/22 11:27:02;;;;;;;1.40;1.23;;;6.70;99.90;;;;;;5091013;28;20164;-73
2020/12/22 11:29:28;;;;;;;2.10;1.23;;;6.70;99.90;;;;;;5090905;28;20191;-73
2020/12/22 11:31:54;;;;;;;2.65;0.70;;;6.60;99.90;;;;;;5090631;28;20195;-73
2020/12/22 11:34:20;;;;;;;1.42;1.42;;;6.40;99.90;;;;;;5090873;28;20156;-73
2020/12/22 11:36:53;;;;;;;2.50;2.30;;;6.30;99.90;;;;;;5089451;28;20188;-73
2020/12/22 11:39:20;;;;;;;0.90;0.90;;;6.30;99.90;;;;;;5090517;28;20183;-73
2020/12/22 11:41:46;;;;;;;4.13;3.70;;;6.20;99.90;;;;;;5090215;28;20212;-73
2020/12/22 11:44:12;;;;;;;3.45;2.35;;;6.00;99.90;;;;;;5090718;28;20161;-73
2020/12/22 11:46:44;;;;;;;1.00;1.00;;;5.70;99.90;;;;;;5090585;28;20170;-73
2020/12/22 11:49:11;;;;;;;0.70;0.70;;;5.70;99.90;;;;;;5090784;28;20192;-73
2020/12/22 11:51:38;;;;;;;2.00;1.83;;;5.70;99.90;;;;;;5090840;28;20168;-73
2020/12/22 11:54:04;;;;;;;1.45;1.15;;;5.90;99.90;;;;;;5090537;28;20160;-73
2020/12/22 11:56:31;;;;;;;0.45;0.45;;;6.10;99.90;;;;;;5090640;28;20214;-73
2020/12/22 11:58:57;;;;;;;3.03;0.98;;;6.30;99.90;;;;;;5090550;28;20245;-73
2020/12/22 12:01:27;;;;;;;1.63;1.17;;;6.50;99.90;;;;;;5090137;28;20219;-73
2020/12/22 12:03:53;;;;;;;1.70;1.60;;;6.50;99.90;;;;;;5089015;28;20289;-72
2020/12/22 12:06:19;;;;;;;1.08;1.08;;;6.30;99.90;;;;;;5089820;28;20160;-72
2020/12/22 12:08:45;;;;;;;1.27;1.27;;;6.30;99.90;;;;;;5088393;28;20196;-73
2020/12/22 12:11:11;;;;;;;0.50;0.50;;;6.10;99.90;;;;;;5090143;28;20190;-73
2020/12/22 12:13:37;;;;;;;1.85;0.52;;;6.10;99.90;;;;;;5090348;28;20212;-73
2020/12/22 12:16:04;;;;;;;2.83;0.98;;;6.20;99.90;;;;;;5089707;28;20188;-72
2020/12/22 12:18:30;;;;;;;0.35;0.35;;;6.10;99.90;;;;;;5089365;28;20230;-73
2020/12/22 12:20:56;;;;;;;0.38;0.38;;;6.10;99.90;;;;;;5089168;28;20156;-73
2020/12/22 12:23:22;;;;;;;1.58;1.50;;;6.30;99.90;;;;;;5089686;28;20515;-73
2020/12/22 12:25:47;;;;;;;0.65;0.65;;;6.30;99.90;;;;;;5089389;28;20156;-73
2020/12/22 12:28:13;;;;;;;0.70;0.70;;;6.40;99.90;;;;;;5089429;28;20196;-73
2020/12/22 12:30:39;;;;;;;1.00;0.93;;;6.40;99.90;;;;;;5089642;28;20194;-72
2020/12/22 12:33:05;;;;;;;0.55;0.55;;;6.50;99.90;;;;;;5089661;28;20156;-72
2020/12/22 12:35:32;;;;;;;0.65;0.65;;;6.60;99.90;;;;;;5088722;28;20188;-72
2020/12/22 12:37:58;;;;;;;0.90;0.90;;;6.60;99.90;;;;;;5089362;28;20184;-73
2020/12/22 12:40:25;;;;;;;0.80;0.80;;;6.50;99.90;;;;;;5088208;28;20171;-74
2020/12/22 12:42:50;;;;;;;0.60;0.60;;;6.40;99.90;;;;;;5089607;28;20218;-73
2020/12/22 12:45:16;;;;;;;1.88;1.77;;;6.30;99.90;;;;;;5087913;28;20168;-72
2020/12/22 12:47:42;;;;;;;0.47;0.47;;;6.30;99.90;;;;;;5089419;28;20156;-73
2020/12/22 12:50:09;;;;;;;1.65;1.48;;;6.30;99.90;;;;;;5088915;28;20152;-73
2020/12/22 12:52:34;;;;;;;0.22;0.22;;;6.40;99.90;;;;;;5087786;28;20640;-73
2020/12/22 12:55:02;;;;;;;1.75;1.65;;;6.40;99.90;;;;;;5089292;28;20163;-73
2020/12/22 12:57:27;;;;;;;1.23;1.23;;;6.30;99.90;;;;;;5089523;28;20239;-73
2020/12/22 12:59:53;;;;;;;0.82;0.82;;;6.20;99.90;;;;;;5089048;28;20577;-73
2020/12/22 13:02:20;;;;;;;6.80;1.90;;;6.20;99.90;;;;;;5089375;28;20159;-73
2020/12/22 13:04:46;;;;;;;0.35;0.35;;;6.40;99.90;;;;;;5087921;28;20164;-73